createdAt,value
2018-12-03T00:01:26.092Z,15.60
2018-12-03T00:03:56.434Z,18.90
2018-12-03T00:06:25.315Z,17.63
2018-12-03T00:08:54.345Z,18.10
2018-12-03T00:11:23.263Z,15.17
2018-12-03T00:13:52.257Z,17.23
2018-12-03T00:16:21.244Z,16.60
2018-12-03T00:18:50.389Z,15.60
2018-12-03T00:21:19.449Z,18.40
2018-12-03T00:23:48.468Z,14.77
2018-12-03T00:26:17.506Z,17.23
2018-12-03T00:28:46.517Z,16.50
2018-12-03T00:31:15.376Z,14.60
2018-12-03T00:33:44.528Z,16.47
2018-12-03T00:36:13.768Z,15.50
2018-12-03T00:38:42.834Z,17.33
2018-12-03T00:41:11.797Z,17.20
2018-12-03T00:43:40.836Z,15.97
2018-12-03T00:46:09.997Z,15.87
2018-12-03T00:48:39.035Z,17.30
2018-12-03T00:51:07.944Z,15.40
2018-12-03T00:53:37.025Z,17.17
2018-12-03T00:56:06.352Z,14.20
2018-12-03T00:58:35.229Z,18.17
2018-12-03T01:01:04.341Z,14.93
2018-12-03T01:03:33.352Z,17.10
2018-12-03T01:06:02.561Z,18.10
2018-12-03T01:08:31.656Z,19.43
2018-12-03T01:11:00.737Z,17.80
2018-12-03T01:13:29.869Z,16.63
2018-12-03T01:15:58.996Z,19.03
2018-12-03T01:18:28.621Z,17.00
2018-12-03T01:20:57.666Z,17.47
2018-12-03T01:23:26.885Z,16.00
2018-12-03T01:25:58.086Z,18.50
2018-12-03T01:28:27.419Z,16.73
2018-12-03T01:30:56.340Z,15.30
2018-12-03T01:33:25.558Z,16.00
2018-12-03T01:37:45.747Z,18.50
2018-12-03T01:40:19.935Z,15.10
2018-12-03T01:42:49.881Z,12.50
2018-12-03T01:45:24.768Z,14.50
2018-12-03T01:47:54.554Z,13.73
2018-12-03T01:50:28.587Z,13.03
2018-12-03T01:53:00.007Z,14.30
2018-12-03T01:55:33.957Z,13.93
2018-12-03T01:58:05.004Z,13.37
2018-12-03T02:00:42.952Z,13.70
2018-12-03T02:03:14.318Z,14.50
2018-12-03T02:05:47.677Z,13.40
2018-12-03T02:08:19.027Z,12.77
2018-12-03T02:10:52.186Z,11.30
2018-12-03T02:13:23.740Z,13.80
2018-12-03T02:15:57.751Z,12.13
2018-12-03T02:18:30.713Z,12.47
2018-12-03T02:21:05.155Z,11.80
2018-12-03T02:23:36.957Z,10.27
2018-12-03T02:26:10.616Z,9.70
2018-12-03T02:28:41.958Z,11.40
2018-12-03T02:31:15.854Z,12.00
2018-12-03T02:33:47.352Z,9.40
2018-12-03T02:36:21.331Z,10.10
2018-12-03T02:38:52.422Z,10.50
2018-12-03T02:41:25.981Z,11.20
2018-12-03T02:43:57.182Z,9.70
2018-12-03T02:46:29.711Z,8.97
2018-12-03T02:49:01.491Z,5.57
2018-12-03T02:51:36.234Z,8.50
2018-12-03T02:54:07.685Z,7.13
2018-12-03T02:56:39.859Z,7.00
2018-12-03T02:59:11.125Z,6.97
2018-12-03T03:01:45.152Z,8.73
2018-12-03T03:04:16.452Z,7.77
2018-12-03T03:06:49.800Z,7.80
2018-12-03T03:09:19.885Z,7.87
2018-12-03T03:11:53.393Z,8.50
2018-12-03T03:14:26.069Z,8.40
2018-12-03T03:17:01.221Z,8.60
2018-12-03T03:19:32.612Z,8.60
2018-12-03T03:22:06.964Z,7.30
2018-12-03T03:24:38.416Z,6.97
2018-12-03T03:27:15.185Z,6.60
2018-12-03T03:29:49.969Z,7.97
2018-12-03T03:32:23.966Z,12.17
2018-12-03T03:34:55.287Z,13.03
2018-12-03T03:37:31.662Z,14.93
2018-12-03T03:40:02.977Z,15.53
2018-12-03T03:42:36.194Z,15.73
2018-12-03T03:45:05.927Z,14.63
2018-12-03T03:47:39.598Z,13.10
2018-12-03T03:50:10.847Z,13.30
2018-12-03T03:52:43.934Z,16.07
2018-12-03T03:55:15.252Z,14.87
2018-12-03T03:57:53.541Z,14.47
2018-12-03T04:00:24.712Z,14.83
2018-12-03T04:02:58.561Z,13.17
2018-12-03T04:05:29.998Z,14.67
2018-12-03T04:08:03.133Z,13.43
2018-12-03T04:10:34.652Z,14.20
2018-12-03T04:13:06.959Z,12.33
2018-12-03T04:15:38.661Z,13.37
2018-12-03T04:18:12.311Z,13.87
2018-12-03T04:20:43.714Z,11.00
2018-12-03T04:23:18.232Z,9.80
2018-12-03T04:25:48.025Z,11.00
2018-12-03T04:28:25.252Z,8.20
2018-12-03T04:30:55.096Z,7.97
2018-12-03T04:33:27.183Z,6.17
2018-12-03T04:35:58.810Z,6.10
2018-12-03T04:38:32.810Z,5.30
2018-12-03T04:41:04.205Z,5.03
2018-12-03T04:43:37.554Z,4.40
2018-12-03T04:46:08.561Z,4.23
2018-12-03T04:48:42.534Z,4.57
2018-12-03T04:51:14.086Z,5.57
2018-12-03T04:53:47.809Z,5.53
2018-12-03T04:58:46.342Z,6.13
2018-12-03T05:01:20.133Z,7.33
2018-12-03T05:03:51.313Z,6.77
2018-12-03T05:06:24.771Z,5.67
2018-12-03T05:08:58.949Z,6.20
2018-12-03T05:11:32.590Z,6.50
2018-12-03T05:14:09.947Z,6.10
2018-12-03T05:16:42.527Z,6.13
2018-12-03T05:19:16.653Z,6.37
2018-12-03T05:21:50.549Z,7.47
2018-12-03T05:24:24.230Z,7.77
2018-12-03T05:26:57.827Z,6.40
2018-12-03T05:29:31.872Z,8.30
2018-12-03T05:32:05.259Z,9.17
2018-12-03T05:34:39.143Z,8.23
2018-12-03T05:37:14.227Z,8.40
2018-12-03T05:39:48.434Z,11.40
2018-12-03T05:42:22.057Z,9.13
2018-12-03T05:44:56.103Z,10.93
2018-12-03T05:47:29.888Z,10.33
2018-12-03T05:50:04.596Z,11.63
2018-12-03T05:52:38.425Z,12.90
2018-12-03T05:55:12.676Z,9.67
2018-12-03T05:57:46.863Z,10.93
2018-12-03T06:00:22.510Z,10.97
2018-12-03T06:02:56.137Z,11.40
2018-12-03T06:05:29.711Z,10.97
2018-12-03T06:08:03.619Z,9.03
2018-12-03T06:10:37.650Z,9.30
2018-12-03T06:13:11.059Z,11.00
2018-12-03T06:15:44.410Z,10.10
2018-12-03T06:18:17.596Z,9.83
2018-12-03T06:20:51.535Z,8.80
2018-12-03T06:23:25.172Z,6.67
2018-12-03T06:25:58.813Z,7.10
2018-12-03T06:28:32.523Z,6.87
2018-12-03T06:31:04.631Z,7.60
2018-12-03T06:33:42.583Z,7.10
2018-12-03T06:36:16.573Z,6.23
2018-12-03T06:38:50.216Z,6.50
2018-12-03T06:41:23.635Z,6.63
2018-12-03T06:43:57.000Z,7.97
2018-12-03T06:46:26.961Z,5.73
2018-12-03T06:49:00.657Z,5.20
2018-12-03T06:53:59.364Z,7.97
2018-12-03T06:56:32.518Z,10.20
2018-12-03T06:59:01.096Z,9.07
2018-12-03T07:01:34.839Z,8.77
2018-12-03T07:04:08.310Z,9.07
2018-12-03T07:06:42.722Z,8.23
2018-12-03T07:09:15.988Z,11.23
2018-12-03T07:11:49.642Z,8.87
2018-12-03T07:14:22.905Z,10.63
2018-12-03T07:16:56.162Z,11.60
2018-12-03T07:19:30.123Z,12.67
2018-12-03T07:22:02.336Z,10.07
2018-12-03T07:24:35.216Z,11.40
2018-12-03T07:27:09.598Z,10.93
2018-12-03T07:29:43.408Z,10.33
2018-12-03T07:32:18.058Z,12.13
2018-12-03T07:34:52.013Z,10.57
2018-12-03T07:37:25.378Z,9.87
2018-12-03T07:39:59.220Z,8.07
2018-12-03T07:42:35.571Z,9.57
2018-12-03T07:45:22.964Z,9.00
2018-12-03T07:47:56.623Z,8.10
2018-12-03T07:50:30.957Z,9.30
2018-12-03T07:53:04.918Z,9.77
2018-12-03T07:55:38.660Z,8.90
2018-12-03T07:58:18.517Z,8.57
2018-12-03T08:00:56.563Z,10.00
2018-12-03T08:03:30.418Z,9.00
2018-12-03T08:06:02.985Z,11.43
2018-12-03T08:08:38.169Z,9.90
2018-12-03T08:11:17.358Z,8.20
2018-12-03T08:13:50.692Z,9.43
2018-12-03T08:16:24.062Z,9.07
2018-12-03T08:19:02.098Z,10.13
2018-12-03T08:21:35.933Z,8.60
2018-12-03T08:24:14.207Z,10.37
2018-12-03T08:26:47.432Z,9.10
2018-12-03T08:29:20.914Z,8.80
2018-12-03T08:31:54.639Z,8.67
2018-12-03T08:34:31.410Z,10.87
2018-12-03T08:37:05.403Z,9.03
2018-12-03T08:39:41.658Z,9.23
2018-12-03T08:42:19.453Z,6.00
2018-12-03T08:44:53.025Z,8.00
2018-12-03T08:47:29.676Z,6.97
2018-12-03T08:50:09.440Z,9.20
2018-12-03T08:52:41.550Z,6.60
2018-12-03T08:55:15.023Z,7.63
2018-12-03T08:57:48.990Z,7.30
2018-12-03T09:00:32.052Z,7.83
2018-12-03T09:03:18.985Z,7.47
2018-12-03T09:05:53.391Z,7.23
2018-12-03T09:08:27.445Z,7.03
2018-12-03T09:11:04.620Z,7.60
2018-12-03T09:13:41.264Z,6.57
2018-12-03T09:16:19.913Z,8.70
2018-12-03T09:18:53.800Z,7.20
2018-12-03T09:21:27.686Z,6.80
2018-12-03T09:24:03.770Z,7.90
2018-12-03T09:26:41.319Z,8.00
2018-12-03T09:31:41.378Z,8.10
2018-12-03T09:34:14.633Z,8.07
2018-12-03T09:36:48.201Z,7.30
2018-12-03T09:39:21.956Z,7.87
2018-12-03T09:41:55.796Z,8.27
2018-12-03T09:44:32.715Z,7.27
2018-12-03T09:47:07.632Z,9.20
2018-12-03T09:49:41.016Z,8.87
2018-12-03T09:52:14.950Z,9.93
2018-12-03T09:54:49.097Z,7.20
2018-12-03T09:57:23.122Z,8.50
2018-12-03T09:59:56.695Z,8.33
2018-12-03T10:02:30.386Z,6.10
2018-12-03T10:05:04.253Z,8.70
2018-12-03T10:07:38.073Z,7.23
2018-12-03T10:10:16.445Z,7.77
2018-12-03T10:12:53.001Z,8.70
2018-12-03T10:15:30.277Z,6.93
2018-12-03T10:18:04.442Z,6.13
2018-12-03T10:20:42.181Z,5.80
2018-12-03T10:23:16.791Z,7.07
2018-12-03T10:25:51.243Z,8.07
2018-12-03T10:28:21.023Z,6.80
2018-12-03T10:30:56.441Z,6.60
2018-12-03T10:33:26.686Z,8.20
2018-12-03T10:36:01.241Z,6.80
2018-12-03T10:38:32.654Z,8.03
2018-12-03T10:41:32.895Z,6.27
2018-12-03T10:44:03.992Z,5.70
2018-12-03T10:46:37.908Z,5.57
2018-12-03T10:51:38.229Z,6.47
2018-12-03T10:54:12.232Z,7.07
2018-12-03T10:56:46.239Z,8.80
2018-12-03T10:59:27.369Z,6.97
2018-12-03T11:02:17.962Z,7.50
2018-12-03T11:05:06.591Z,7.13
2018-12-03T11:07:40.390Z,7.57
2018-12-03T11:10:11.723Z,6.67
2018-12-03T11:12:54.391Z,7.83
2018-12-03T11:15:25.795Z,9.30
2018-12-03T11:18:03.537Z,7.00
2018-12-03T11:20:35.592Z,6.77
2018-12-03T11:23:09.797Z,5.67
2018-12-03T11:25:41.105Z,7.00
2018-12-03T11:28:17.126Z,7.97
2018-12-03T11:30:48.325Z,6.93
2018-12-03T11:33:29.583Z,8.20
2018-12-03T11:36:00.953Z,7.53
2018-12-03T11:39:29.205Z,7.30
2018-12-03T11:44:29.793Z,6.73
2018-12-03T11:47:03.556Z,9.47
2018-12-03T11:49:37.933Z,7.80
2018-12-03T11:52:11.643Z,6.60
2018-12-03T11:54:45.490Z,7.97
2018-12-03T11:57:23.130Z,6.90
2018-12-03T11:59:56.803Z,7.20
2018-12-03T12:02:28.944Z,6.53
2018-12-03T12:05:03.186Z,6.93
2018-12-03T12:07:34.262Z,5.13
2018-12-03T12:10:08.177Z,8.73
2018-12-03T12:12:39.662Z,6.63
2018-12-03T12:15:16.529Z,6.63
2018-12-03T12:17:47.617Z,8.47
2018-12-03T12:20:19.848Z,6.30
2018-12-03T12:22:51.795Z,5.50
2018-12-03T12:25:25.364Z,6.37
2018-12-03T12:27:56.812Z,7.30
2018-12-03T12:30:30.748Z,8.13
2018-12-03T12:33:00.611Z,6.53
2018-12-03T12:35:34.670Z,6.50
2018-12-03T12:38:04.644Z,7.07
2018-12-03T12:40:41.604Z,7.47
2018-12-03T12:43:13.051Z,7.23
2018-12-03T12:45:56.429Z,7.50
2018-12-03T12:48:28.110Z,8.57
2018-12-03T12:51:01.744Z,7.50
2018-12-03T12:53:33.369Z,10.73
2018-12-03T12:56:07.720Z,9.50
2018-12-03T12:58:37.427Z,8.20
2018-12-03T13:01:09.452Z,8.50
2018-12-03T13:03:40.729Z,10.17
2018-12-03T13:06:14.732Z,9.70
2018-12-03T13:08:46.297Z,8.50
2018-12-03T13:11:19.430Z,9.17
2018-12-03T13:13:50.748Z,7.57
2018-12-03T13:16:27.697Z,10.37
2018-12-03T13:18:58.968Z,8.00
2018-12-03T13:21:32.902Z,8.63
2018-12-03T13:24:04.108Z,8.17
2018-12-03T13:26:39.661Z,6.20
2018-12-03T13:31:38.301Z,8.30
2018-12-03T13:34:12.026Z,8.13
2018-12-03T13:36:45.700Z,7.60
2018-12-03T13:39:14.055Z,9.57
2018-12-03T13:41:47.240Z,8.73
2018-12-03T13:44:18.444Z,7.33
2018-12-03T13:46:50.580Z,7.40
2018-12-03T13:49:20.372Z,7.60
2018-12-03T13:51:54.400Z,6.17
2018-12-03T13:54:25.360Z,6.90
2018-12-03T13:56:59.352Z,7.20
2018-12-03T13:59:30.637Z,8.50
2018-12-03T14:02:04.201Z,6.53
2018-12-03T14:04:33.954Z,5.90
2018-12-03T14:07:37.116Z,7.00
2018-12-03T14:10:08.666Z,6.73
2018-12-03T14:12:49.098Z,5.40
2018-12-03T14:15:20.543Z,7.83
2018-12-03T14:18:15.069Z,6.30
2018-12-03T14:20:44.983Z,7.47
2018-12-03T14:23:20.099Z,6.57
2018-12-03T14:25:51.248Z,6.80
2018-12-03T14:28:28.238Z,5.83
2018-12-03T14:30:59.251Z,6.33
2018-12-03T14:33:32.583Z,7.17
2018-12-03T14:36:03.550Z,5.67
2018-12-03T14:38:35.694Z,6.03
2018-12-03T14:41:05.310Z,6.57
2018-12-03T14:43:39.186Z,6.40
2018-12-03T14:46:09.169Z,5.20
2018-12-03T14:48:43.010Z,5.07
2018-12-03T14:51:14.243Z,6.60
2018-12-03T14:53:46.304Z,5.33
2018-12-03T14:56:17.619Z,6.33
2018-12-03T14:58:51.574Z,5.67
2018-12-03T15:01:22.836Z,5.77
2018-12-03T15:03:55.015Z,6.10
2018-12-03T15:06:26.569Z,5.80
2018-12-03T15:09:03.376Z,5.93
2018-12-03T15:11:33.209Z,5.03
2018-12-03T15:14:06.772Z,5.87
2018-12-03T15:16:37.887Z,5.40
2018-12-03T15:19:11.844Z,5.63
2018-12-03T15:24:13.506Z,5.03
2018-12-03T15:26:50.974Z,5.37
2018-12-03T15:29:23.171Z,5.87
2018-12-03T15:31:55.241Z,4.87
2018-12-03T15:34:28.969Z,6.80
2018-12-03T15:37:02.648Z,5.60
2018-12-03T15:39:36.053Z,4.50
2018-12-03T15:42:09.349Z,6.27
2018-12-03T15:44:43.214Z,4.23
2018-12-03T15:47:16.454Z,5.70
2018-12-03T15:49:50.486Z,5.20
2018-12-03T15:52:23.723Z,6.13
2018-12-03T15:54:57.494Z,5.50
2018-12-03T15:57:31.097Z,5.70
2018-12-03T16:00:05.152Z,6.27
2018-12-03T16:02:37.437Z,5.90
2018-12-03T16:05:14.209Z,5.73
2018-12-03T16:07:51.091Z,6.53
2018-12-03T16:10:25.072Z,6.47
2018-12-03T16:12:58.980Z,5.53
2018-12-03T16:15:31.301Z,4.83
2018-12-03T16:18:05.315Z,5.30
2018-12-03T16:20:43.009Z,5.33
2018-12-03T16:23:16.776Z,4.50
2018-12-03T16:25:50.548Z,5.17
2018-12-03T16:28:24.086Z,6.33
2018-12-03T16:30:58.194Z,4.97
2018-12-03T16:33:30.378Z,5.47
2018-12-03T16:36:04.210Z,6.27
2018-12-03T16:38:38.009Z,4.27
2018-12-03T16:41:11.534Z,8.23
2018-12-03T16:43:45.190Z,6.67
2018-12-03T16:46:18.858Z,7.40
2018-12-03T16:48:52.524Z,5.43
2018-12-03T16:51:26.509Z,6.10
2018-12-03T16:53:59.997Z,5.80
2018-12-03T16:56:34.024Z,5.30
2018-12-03T16:59:07.597Z,6.07
2018-12-03T17:01:41.381Z,7.57
2018-12-03T17:04:11.487Z,6.30
2018-12-03T17:06:45.431Z,5.27
2018-12-03T17:11:43.842Z,6.10
2018-12-03T17:14:17.679Z,6.93
2018-12-03T17:16:51.057Z,6.93
2018-12-03T17:19:25.091Z,6.90
2018-12-03T17:23:12.935Z,6.10
2018-12-03T17:25:46.491Z,7.27
2018-12-03T17:28:16.387Z,7.47
2018-12-03T17:30:50.368Z,6.53
2018-12-03T17:33:20.328Z,6.00
2018-12-03T17:35:54.411Z,6.97
2018-12-03T17:38:25.639Z,5.90
2018-12-03T17:40:58.017Z,6.70
2018-12-03T17:43:29.255Z,7.47
2018-12-03T17:46:03.327Z,8.40
2018-12-03T17:48:34.916Z,8.07
2018-12-03T17:51:09.101Z,7.40
2018-12-03T17:53:39.005Z,7.60
2018-12-03T17:56:11.616Z,6.80
2018-12-03T17:58:41.523Z,7.37
2018-12-03T18:01:16.592Z,7.63
2018-12-03T18:03:47.747Z,9.57
2018-12-03T18:06:21.485Z,8.47
2018-12-03T18:08:52.574Z,9.57
2018-12-03T18:11:26.342Z,10.60
2018-12-03T18:13:57.725Z,9.10
2018-12-03T18:16:32.125Z,11.33
2018-12-03T18:19:01.895Z,10.40
2018-12-03T18:21:36.407Z,10.87
2018-12-03T18:24:08.473Z,12.47
2018-12-03T18:26:42.771Z,11.87
2018-12-03T18:31:43.317Z,13.37
2018-12-03T18:34:17.961Z,12.53
2018-12-03T18:36:49.572Z,13.53
2018-12-03T18:39:23.557Z,13.23
2018-12-03T18:42:00.302Z,12.83
2018-12-03T18:44:37.866Z,15.43
2018-12-03T18:47:12.327Z,12.10
2018-12-03T18:49:49.393Z,13.57
2018-12-03T18:52:24.250Z,11.77
2018-12-03T18:54:56.911Z,11.30
2018-12-03T18:57:31.538Z,14.10
2018-12-03T19:00:06.297Z,12.50
2018-12-03T19:02:42.371Z,16.00
2018-12-03T19:05:16.817Z,13.97
2018-12-03T19:07:51.145Z,11.43
2018-12-03T19:10:25.326Z,12.13
2018-12-03T19:13:00.367Z,13.00
2018-12-03T19:15:34.687Z,11.70
2018-12-03T19:18:08.945Z,11.67
2018-12-03T19:20:43.188Z,10.20
2018-12-03T19:23:17.744Z,10.97
2018-12-03T19:25:50.425Z,10.80
2018-12-03T19:28:25.055Z,13.10
2018-12-03T19:30:59.097Z,13.80
2018-12-03T19:33:31.912Z,11.00
2018-12-03T19:36:06.490Z,11.67
2018-12-03T19:38:41.190Z,15.03
2018-12-03T19:41:15.890Z,13.27
2018-12-03T19:43:50.445Z,12.83
2018-12-03T19:46:24.437Z,12.50
2018-12-03T19:48:59.899Z,12.77
2018-12-03T19:51:34.493Z,11.30
2018-12-03T19:54:08.433Z,13.50
2018-12-03T19:56:42.861Z,11.60
2018-12-03T20:01:47.588Z,11.93
2018-12-03T20:04:37.408Z,13.67
2018-12-03T20:07:10.208Z,13.07
2018-12-03T20:09:44.577Z,13.63
2018-12-03T20:12:17.239Z,10.97
2018-12-03T20:14:51.257Z,15.23
2018-12-03T20:17:31.951Z,12.67
2018-12-03T20:20:04.780Z,12.50
2018-12-03T20:22:53.850Z,11.80
2018-12-03T20:25:32.181Z,12.13
2018-12-03T20:28:13.810Z,13.37
2018-12-03T20:31:39.611Z,15.23
2018-12-03T20:34:26.597Z,12.90
2018-12-03T20:40:04.832Z,16.00
2018-12-03T20:42:41.615Z,15.53
2018-12-03T20:45:33.946Z,14.70
2018-12-03T20:48:08.617Z,13.10
2018-12-03T20:50:52.806Z,12.60
2018-12-03T20:53:28.764Z,11.50
2018-12-03T20:56:05.430Z,11.90
2018-12-03T20:58:40.186Z,13.23
2018-12-03T21:01:14.624Z,11.60
2018-12-03T21:03:53.574Z,14.63
2018-12-03T21:06:27.969Z,10.63
2018-12-03T21:09:02.151Z,10.17
2018-12-03T21:11:36.080Z,11.03
2018-12-03T21:14:09.075Z,12.13
2018-12-03T21:16:43.078Z,11.30
2018-12-03T21:19:16.863Z,14.57
2018-12-03T21:21:51.075Z,11.10
2018-12-03T21:24:25.365Z,12.93
2018-12-03T21:26:59.411Z,12.93
2018-12-03T21:32:02.652Z,11.60
2018-12-03T21:34:33.743Z,12.00
2018-12-03T21:37:12.299Z,11.37
2018-12-03T21:39:47.890Z,11.60
2018-12-03T21:42:18.618Z,12.57
2018-12-03T21:44:50.235Z,12.00
2018-12-03T21:47:23.972Z,12.30
2018-12-03T21:49:55.737Z,12.10
2018-12-03T21:52:28.407Z,12.63
2018-12-03T21:54:58.355Z,11.30
2018-12-03T21:57:32.449Z,10.30
2018-12-03T22:00:01.692Z,11.20
2018-12-03T22:02:35.515Z,3.77
2018-12-03T22:05:05.396Z,3.67
2018-12-03T22:07:37.246Z,2.20
2018-12-03T22:10:07.113Z,2.40
2018-12-03T22:12:44.194Z,3.43
2018-12-03T22:15:15.207Z,2.47
2018-12-03T22:17:49.296Z,3.17
2018-12-03T22:20:21.056Z,2.33
2018-12-03T22:22:55.213Z,2.20
2018-12-03T22:25:26.435Z,2.63
2018-12-03T22:28:02.680Z,2.40
2018-12-03T22:30:34.589Z,3.27
2018-12-03T22:33:08.551Z,3.40
2018-12-03T22:35:39.643Z,4.83
2018-12-03T22:38:14.085Z,3.93
2018-12-03T22:40:43.998Z,5.40
2018-12-03T22:43:17.418Z,3.27
2018-12-03T22:45:48.556Z,3.87
2018-12-03T22:48:20.645Z,4.10
2018-12-03T22:50:51.878Z,4.30
2018-12-03T22:53:25.887Z,2.77
2018-12-03T22:55:56.814Z,2.30
2018-12-03T22:58:30.763Z,2.10
2018-12-03T23:01:10.584Z,3.00
2018-12-03T23:03:44.543Z,2.40
2018-12-03T23:06:15.960Z,2.10
2018-12-03T23:08:49.312Z,2.23
2018-12-03T23:11:20.714Z,3.40
2018-12-03T23:13:54.599Z,2.47
2018-12-03T23:16:25.593Z,2.20
2018-12-03T23:18:58.049Z,2.10
2018-12-03T23:21:29.550Z,3.43
2018-12-03T23:24:02.839Z,2.70
2018-12-03T23:26:32.638Z,3.37
2018-12-03T23:29:06.415Z,1.80
2018-12-03T23:31:37.728Z,2.10
2018-12-03T23:34:11.593Z,3.27
2018-12-03T23:36:42.568Z,2.50
2018-12-03T23:39:15.918Z,2.50
2018-12-03T23:41:46.849Z,1.80
2018-12-03T23:44:18.897Z,2.80
2018-12-03T23:46:50.203Z,3.13
2018-12-03T23:49:23.417Z,2.13
2018-12-03T23:51:54.434Z,2.17
2018-12-03T23:54:27.693Z,2.67
2018-12-03T23:56:58.833Z,2.40
2018-12-03T23:59:32.897Z,2.63
